sensor_id;sensor_type;location;lat;lon;timestamp;pressure;altitude;pressure_sealevel;temperature;humidity
55424;BME280;41294;42.666;23.350;2022-12-11T00:01:59;92993.00;;;11.91;100.00
55424;BME280;41294;42.666;23.350;2022-12-11T00:04:25;92987.72;;;11.91;100.00
55424;BME280;41294;42.666;23.350;2022-12-11T00:06:51;92988.84;;;12.01;100.00
55424;BME280;41294;42.666;23.350;2022-12-11T00:09:18;93016.50;;;11.89;100.00
55424;BME280;41294;42.666;23.350;2022-12-11T00:11:44;92993.31;;;11.82;100.00
55424;BME280;41294;42.666;23.350;2022-12-11T00:14:11;92977.19;;;11.62;100.00
55424;BME280;41294;42.666;23.350;2022-12-11T00:16:36;92994.44;;;11.63;100.00
55424;BME280;41294;42.666;23.350;2022-12-11T00:19:02;92959.03;;;11.82;100.00
55424;BME280;41294;42.666;23.350;2022-12-11T00:21:28;92973.88;;;11.85;100.00
55424;BME280;41294;42.666;23.350;2022-12-11T00:23:53;92977.81;;;11.73;100.00
55424;BME280;41294;42.666;23.350;2022-12-11T00:26:19;92966.38;;;11.65;100.00
55424;BME280;41294;42.666;23.350;2022-12-11T00:28:44;92958.16;;;11.74;100.00
55424;BME280;41294;42.666;23.350;2022-12-11T00:31:13;92956.91;;;11.81;100.00
55424;BME280;41294;42.666;23.350;2022-12-11T00:33:39;92975.75;;;11.90;100.00
55424;BME280;41294;42.666;23.350;2022-12-11T00:36:13;92958.34;;;11.82;100.00
55424;BME280;41294;42.666;23.350;2022-12-11T00:38:39;92989.56;;;11.72;100.00
55424;BME280;41294;42.666;23.350;2022-12-11T00:41:05;92952.63;;;11.78;100.00
55424;BME280;41294;42.666;23.350;2022-12-11T00:43:30;93007.56;;;11.68;100.00
55424;BME280;41294;42.666;23.350;2022-12-11T00:45:55;92938.22;;;11.79;100.00
55424;BME280;41294;42.666;23.350;2022-12-11T00:48:21;92962.09;;;11.62;100.00
55424;BME280;41294;42.666;23.350;2022-12-11T00:50:46;92947.44;;;11.67;100.00
55424;BME280;41294;42.666;23.350;2022-12-11T00:53:12;92956.06;;;11.67;100.00
55424;BME280;41294;42.666;23.350;2022-12-11T00:55:39;92964.84;;;11.75;100.00
55424;BME280;41294;42.666;23.350;2022-12-11T00:58:05;92982.22;;;11.89;100.00
55424;BME280;41294;42.666;23.350;2022-12-11T01:00:33;92971.19;;;11.91;100.00
55424;BME280;41294;42.666;23.350;2022-12-11T01:02:59;92949.84;;;11.94;100.00
55424;BME280;41294;42.666;23.350;2022-12-11T01:05:24;92940.94;;;11.97;100.00
55424;BME280;41294;42.666;23.350;2022-12-11T01:07:50;92955.81;;;11.95;100.00
55424;BME280;41294;42.666;23.350;2022-12-11T01:10:15;92970.28;;;11.88;100.00
55424;BME280;41294;42.666;23.350;2022-12-11T01:12:56;92975.69;;;11.96;100.00
55424;BME280;41294;42.666;23.350;2022-12-11T01:15:24;92987.63;;;12.02;100.00
55424;BME280;41294;42.666;23.350;2022-12-11T01:17:50;92968.94;;;12.00;100.00
55424;BME280;41294;42.666;23.350;2022-12-11T01:20:17;92948.91;;;11.92;100.00
55424;BME280;41294;42.666;23.350;2022-12-11T01:22:42;93009.03;;;11.93;100.00
55424;BME280;41294;42.666;23.350;2022-12-11T01:25:08;92982.38;;;12.02;100.00
55424;BME280;41294;42.666;23.350;2022-12-11T01:27:34;92986.75;;;11.94;100.00
55424;BME280;41294;42.666;23.350;2022-12-11T01:30:00;93007.13;;;11.94;100.00
55424;BME280;41294;42.666;23.350;2022-12-11T01:32:26;92974.22;;;12.00;100.00
55424;BME280;41294;42.666;23.350;2022-12-11T01:34:52;92970.84;;;12.05;100.00
55424;BME280;41294;42.666;23.350;2022-12-11T01:37:18;92958.06;;;11.85;100.00
55424;BME280;41294;42.666;23.350;2022-12-11T01:39:43;92965.31;;;11.79;100.00
55424;BME280;41294;42.666;23.350;2022-12-11T01:42:15;92946.53;;;11.88;100.00
55424;BME280;41294;42.666;23.350;2022-12-11T01:47:06;92947.88;;;11.71;100.00
55424;BME280;41294;42.666;23.350;2022-12-11T01:49:32;92964.19;;;11.69;100.00
55424;BME280;41294;42.666;23.350;2022-12-11T01:52:01;92955.03;;;11.76;100.00
55424;BME280;41294;42.666;23.350;2022-12-11T01:54:28;92908.97;;;11.82;100.00
55424;BME280;41294;42.666;23.350;2022-12-11T01:57:01;92929.56;;;11.84;100.00
55424;BME280;41294;42.666;23.350;2022-12-11T01:59:30;92956.53;;;11.95;100.00
55424;BME280;41294;42.666;23.350;2022-12-11T02:02:14;92976.53;;;12.09;100.00
55424;BME280;41294;42.666;23.350;2022-12-11T02:04:43;92986.66;;;12.05;100.00
55424;BME280;41294;42.666;23.350;2022-12-11T02:07:10;92973.91;;;12.09;100.00
55424;BME280;41294;42.666;23.350;2022-12-11T02:09:36;92965.19;;;12.20;100.00
55424;BME280;41294;42.666;23.350;2022-12-11T02:18:23;92948.41;;;12.17;100.00
55424;BME280;41294;42.666;23.350;2022-12-11T02:20:53;92932.53;;;12.23;100.00
55424;BME280;41294;42.666;23.350;2022-12-11T02:26:11;92918.94;;;12.37;100.00
55424;BME280;41294;42.666;23.350;2022-12-11T02:28:55;92901.31;;;12.27;100.00
55424;BME280;41294;42.666;23.350;2022-12-11T02:34:12;92869.16;;;12.28;100.00
55424;BME280;41294;42.666;23.350;2022-12-11T02:36:45;92890.34;;;12.41;100.00
55424;BME280;41294;42.666;23.350;2022-12-11T02:39:14;92900.97;;;12.54;100.00
55424;BME280;41294;42.666;23.350;2022-12-11T02:41:45;92903.22;;;12.50;100.00
55424;BME280;41294;42.666;23.350;2022-12-11T02:44:13;92889.44;;;12.57;100.00
55424;BME280;41294;42.666;23.350;2022-12-11T02:46:41;92898.41;;;12.48;100.00
55424;BME280;41294;42.666;23.350;2022-12-11T02:49:08;92900.75;;;12.52;100.00
55424;BME280;41294;42.666;23.350;2022-12-11T02:51:41;92916.81;;;12.54;100.00
55424;BME280;41294;42.666;23.350;2022-12-11T02:54:11;92915.03;;;12.62;100.00
55424;BME280;41294;42.666;23.350;2022-12-11T02:56:43;92912.03;;;12.71;100.00
55424;BME280;41294;42.666;23.350;2022-12-11T02:59:13;92910.69;;;12.64;100.00
55424;BME280;41294;42.666;23.350;2022-12-11T03:01:40;92910.56;;;12.57;100.00
55424;BME280;41294;42.666;23.350;2022-12-11T03:04:06;92891.41;;;12.51;100.00
55424;BME280;41294;42.666;23.350;2022-12-11T03:06:36;92918.16;;;12.42;100.00
55424;BME280;41294;42.666;23.350;2022-12-11T03:09:04;92900.91;;;12.41;100.00
55424;BME280;41294;42.666;23.350;2022-12-11T03:11:29;92903.84;;;12.56;100.00
55424;BME280;41294;42.666;23.350;2022-12-11T03:13:55;92896.34;;;12.60;100.00
55424;BME280;41294;42.666;23.350;2022-12-11T03:16:36;92892.50;;;12.79;100.00
55424;BME280;41294;42.666;23.350;2022-12-11T03:21:45;92883.38;;;12.99;100.00
55424;BME280;41294;42.666;23.350;2022-12-11T03:26:58;92878.69;;;12.92;100.00
55424;BME280;41294;42.666;23.350;2022-12-11T03:29:31;92884.25;;;12.88;100.00
55424;BME280;41294;42.666;23.350;2022-12-11T03:32:08;92890.66;;;12.93;100.00
55424;BME280;41294;42.666;23.350;2022-12-11T03:34:41;92883.38;;;12.99;100.00
55424;BME280;41294;42.666;23.350;2022-12-11T03:37:09;92895.22;;;13.11;100.00
55424;BME280;41294;42.666;23.350;2022-12-11T03:39:41;92900.06;;;13.07;100.00
55424;BME280;41294;42.666;23.350;2022-12-11T03:42:11;92909.28;;;13.18;100.00
55424;BME280;41294;42.666;23.350;2022-12-11T03:44:37;92931.03;;;13.24;100.00
55424;BME280;41294;42.666;23.350;2022-12-11T03:47:05;92917.91;;;13.50;99.05
55424;BME280;41294;42.666;23.350;2022-12-11T03:49:41;92929.22;;;13.64;100.00
55424;BME280;41294;42.666;23.350;2022-12-11T03:52:09;92936.31;;;13.56;100.00
55424;BME280;41294;42.666;23.350;2022-12-11T03:54:35;92909.22;;;13.68;98.55
55424;BME280;41294;42.666;23.350;2022-12-11T03:57:03;92915.94;;;13.82;97.20
55424;BME280;41294;42.666;23.350;2022-12-11T03:59:30;92946.06;;;13.79;98.54
55424;BME280;41294;42.666;23.350;2022-12-11T04:01:55;92951.56;;;13.81;97.09
55424;BME280;41294;42.666;23.350;2022-12-11T04:04:20;92956.84;;;13.94;97.06
55424;BME280;41294;42.666;23.350;2022-12-11T04:06:46;92956.34;;;13.95;97.42
55424;BME280;41294;42.666;23.350;2022-12-11T04:09:18;92954.34;;;14.01;96.86
55424;BME280;41294;42.666;23.350;2022-12-11T04:11:43;92955.69;;;14.08;96.77
55424;BME280;41294;42.666;23.350;2022-12-11T04:14:12;92954.50;;;14.22;93.25
55424;BME280;41294;42.666;23.350;2022-12-11T04:16:58;92955.09;;;14.28;93.61
55424;BME280;41294;42.666;23.350;2022-12-11T04:19:25;92954.00;;;14.36;94.23
55424;BME280;41294;42.666;23.350;2022-12-11T04:22:10;92954.47;;;14.35;94.16
55424;BME280;41294;42.666;23.350;2022-12-11T04:24:55;92966.72;;;14.38;94.04
55424;BME280;41294;42.666;23.350;2022-12-11T04:27:20;92975.88;;;14.37;94.10
55424;BME280;41294;42.666;23.350;2022-12-11T04:30:07;92979.16;;;14.43;94.80
55424;BME280;41294;42.666;23.350;2022-12-11T04:32:33;92975.66;;;14.48;94.80
55424;BME280;41294;42.666;23.350;2022-12-11T04:34:58;92982.78;;;14.53;95.29
55424;BME280;41294;42.666;23.350;2022-12-11T04:37:23;92981.50;;;14.46;93.38
55424;BME280;41294;42.666;23.350;2022-12-11T04:39:49;92979.34;;;14.58;90.78
55424;BME280;41294;42.666;23.350;2022-12-11T04:42:14;92991.16;;;14.70;88.88
55424;BME280;41294;42.666;23.350;2022-12-11T04:44:40;92997.13;;;14.96;78.22
55424;BME280;41294;42.666;23.350;2022-12-11T04:47:06;92995.78;;;15.15;78.95
55424;BME280;41294;42.666;23.350;2022-12-11T04:49:31;92982.91;;;15.32;75.17
55424;BME280;41294;42.666;23.350;2022-12-11T04:54:40;92971.47;;;15.70;71.40
55424;BME280;41294;42.666;23.350;2022-12-11T04:57:06;92975.34;;;15.69;70.81
55424;BME280;41294;42.666;23.350;2022-12-11T04:59:32;93003.16;;;15.76;69.39
55424;BME280;41294;42.666;23.350;2022-12-11T05:01:57;93027.00;;;15.89;67.39
55424;BME280;41294;42.666;23.350;2022-12-11T05:04:22;93009.19;;;15.97;67.21
55424;BME280;41294;42.666;23.350;2022-12-11T05:06:49;92991.19;;;16.03;67.34
55424;BME280;41294;42.666;23.350;2022-12-11T05:09:14;93012.81;;;16.07;65.58
55424;BME280;41294;42.666;23.350;2022-12-11T05:11:40;93009.06;;;16.23;66.23
55424;BME280;41294;42.666;23.350;2022-12-11T05:14:05;93016.81;;;16.21;67.11
55424;BME280;41294;42.666;23.350;2022-12-11T05:16:30;93019.25;;;16.32;64.74
55424;BME280;41294;42.666;23.350;2022-12-11T05:18:56;93020.88;;;16.35;65.37
55424;BME280;41294;42.666;23.350;2022-12-11T05:21:21;93006.91;;;16.42;65.53
55424;BME280;41294;42.666;23.350;2022-12-11T05:23:46;93029.28;;;16.46;66.05
55424;BME280;41294;42.666;23.350;2022-12-11T05:26:15;93020.13;;;16.34;65.53
55424;BME280;41294;42.666;23.350;2022-12-11T05:28:42;93044.94;;;16.37;65.77
55424;BME280;41294;42.666;23.350;2022-12-11T05:31:11;93030.06;;;16.34;65.59
55424;BME280;41294;42.666;23.350;2022-12-11T05:33:37;93027.59;;;16.36;66.06
55424;BME280;41294;42.666;23.350;2022-12-11T05:36:03;93026.41;;;16.44;66.22
55424;BME280;41294;42.666;23.350;2022-12-11T05:38:28;93012.03;;;16.40;65.97
55424;BME280;41294;42.666;23.350;2022-12-11T05:40:59;93008.91;;;16.48;66.13
55424;BME280;41294;42.666;23.350;2022-12-11T05:43:25;93009.06;;;16.43;66.73
55424;BME280;41294;42.666;23.350;2022-12-11T05:45:51;92999.78;;;16.37;67.53
55424;BME280;41294;42.666;23.350;2022-12-11T05:48:17;92997.13;;;16.37;67.25
55424;BME280;41294;42.666;23.350;2022-12-11T05:50:42;92991.88;;;16.44;65.89
55424;BME280;41294;42.666;23.350;2022-12-11T05:53:08;92981.41;;;16.39;67.52
55424;BME280;41294;42.666;23.350;2022-12-11T05:55:34;93004.84;;;16.27;68.60
55424;BME280;41294;42.666;23.350;2022-12-11T05:57:59;92986.97;;;16.28;65.93
55424;BME280;41294;42.666;23.350;2022-12-11T06:00:25;92981.25;;;16.44;65.67
55424;BME280;41294;42.666;23.350;2022-12-11T06:02:50;92988.53;;;16.44;67.01
55424;BME280;41294;42.666;23.350;2022-12-11T06:05:17;92993.31;;;16.45;65.40
55424;BME280;41294;42.666;23.350;2022-12-11T06:07:43;92982.34;;;16.48;65.30
55424;BME280;41294;42.666;23.350;2022-12-11T06:10:08;92966.34;;;16.41;65.73
55424;BME280;41294;42.666;23.350;2022-12-11T06:12:34;92983.97;;;16.51;64.17
55424;BME280;41294;42.666;23.350;2022-12-11T06:15:00;92976.63;;;16.72;63.15
55424;BME280;41294;42.666;23.350;2022-12-11T06:17:25;92991.75;;;16.77;63.29
55424;BME280;41294;42.666;23.350;2022-12-11T06:19:51;92997.75;;;16.78;64.40
55424;BME280;41294;42.666;23.350;2022-12-11T06:22:16;93009.97;;;16.73;64.17
55424;BME280;41294;42.666;23.350;2022-12-11T06:24:42;93014.72;;;16.67;63.49
55424;BME280;41294;42.666;23.350;2022-12-11T06:27:07;93024.63;;;16.67;63.21
55424;BME280;41294;42.666;23.350;2022-12-11T06:29:33;92997.25;;;16.79;61.72
55424;BME280;41294;42.666;23.350;2022-12-11T06:31:58;93022.47;;;16.93;62.08
55424;BME280;41294;42.666;23.350;2022-12-11T06:34:23;93038.81;;;16.97;62.01
55424;BME280;41294;42.666;23.350;2022-12-11T06:36:49;93032.22;;;16.91;62.58
55424;BME280;41294;42.666;23.350;2022-12-11T06:39:14;93029.03;;;16.92;62.71
55424;BME280;41294;42.666;23.350;2022-12-11T06:41:39;93025.66;;;16.92;62.84
55424;BME280;41294;42.666;23.350;2022-12-11T06:44:05;93013.59;;;16.91;63.31
55424;BME280;41294;42.666;23.350;2022-12-11T06:46:30;93018.41;;;16.92;62.41
55424;BME280;41294;42.666;23.350;2022-12-11T06:48:56;92969.13;;;16.91;62.50
55424;BME280;41294;42.666;23.350;2022-12-11T06:51:22;92988.31;;;16.97;60.85
55424;BME280;41294;42.666;23.350;2022-12-11T06:53:52;93018.84;;;17.11;60.21
55424;BME280;41294;42.666;23.350;2022-12-11T06:56:18;93020.75;;;17.31;60.48
55424;BME280;41294;42.666;23.350;2022-12-11T06:58:44;93027.13;;;17.35;60.58
55424;BME280;41294;42.666;23.350;2022-12-11T07:01:24;93039.81;;;17.22;60.32
55424;BME280;41294;42.666;23.350;2022-12-11T07:03:58;93023.00;;;17.27;61.19
55424;BME280;41294;42.666;23.350;2022-12-11T07:06:25;93035.53;;;17.19;60.57
55424;BME280;41294;42.666;23.350;2022-12-11T07:08:51;93038.13;;;17.32;61.25
55424;BME280;41294;42.666;23.350;2022-12-11T07:11:18;93049.16;;;17.51;60.94
55424;BME280;41294;42.666;23.350;2022-12-11T07:13:44;93023.53;;;17.76;60.56
55424;BME280;41294;42.666;23.350;2022-12-11T07:16:12;93035.28;;;17.95;59.96
55424;BME280;41294;42.666;23.350;2022-12-11T07:18:42;93043.88;;;17.58;60.69
55424;BME280;41294;42.666;23.350;2022-12-11T07:21:11;93040.69;;;17.60;60.82
55424;BME280;41294;42.666;23.350;2022-12-11T07:23:37;93040.63;;;17.45;60.56
55424;BME280;41294;42.666;23.350;2022-12-11T07:26:07;93040.63;;;17.45;60.21
55424;BME280;41294;42.666;23.350;2022-12-11T07:28:33;93050.63;;;17.59;60.72
55424;BME280;41294;42.666;23.350;2022-12-11T07:31:10;93047.44;;;17.53;61.58
55424;BME280;41294;42.666;23.350;2022-12-11T07:33:36;93047.94;;;17.52;62.11
55424;BME280;41294;42.666;23.350;2022-12-11T07:36:04;93064.06;;;17.46;62.45
55424;BME280;41294;42.666;23.350;2022-12-11T07:38:30;93066.16;;;17.40;62.13
55424;BME280;41294;42.666;23.350;2022-12-11T07:40:59;93082.13;;;17.40;61.53
55424;BME280;41294;42.666;23.350;2022-12-11T07:43:24;93079.41;;;17.33;61.02
55424;BME280;41294;42.666;23.350;2022-12-11T07:45:50;93088.38;;;17.23;62.31
55424;BME280;41294;42.666;23.350;2022-12-11T07:48:15;93095.47;;;17.20;62.96
55424;BME280;41294;42.666;23.350;2022-12-11T07:50:41;93091.03;;;17.15;63.25
55424;BME280;41294;42.666;23.350;2022-12-11T07:53:06;93072.38;;;17.08;61.56
55424;BME280;41294;42.666;23.350;2022-12-11T07:55:31;93081.84;;;17.24;61.90
55424;BME280;41294;42.666;23.350;2022-12-11T07:57:57;93086.25;;;17.21;62.02
55424;BME280;41294;42.666;23.350;2022-12-11T08:00:22;93080.69;;;17.32;61.47
55424;BME280;41294;42.666;23.350;2022-12-11T08:02:48;93083.41;;;17.47;61.84
55424;BME280;41294;42.666;23.350;2022-12-11T08:05:13;93102.44;;;17.58;61.67
55424;BME280;41294;42.666;23.350;2022-12-11T08:07:38;93118.03;;;17.54;61.45
55424;BME280;41294;42.666;23.350;2022-12-11T08:10:04;93094.09;;;17.27;62.04
55424;BME280;41294;42.666;23.350;2022-12-11T08:12:30;93088.06;;;17.26;61.93
55424;BME280;41294;42.666;23.350;2022-12-11T08:14:55;93109.34;;;17.26;62.35
55424;BME280;41294;42.666;23.350;2022-12-11T08:17:20;93102.72;;;17.40;62.21
55424;BME280;41294;42.666;23.350;2022-12-11T08:19:46;93087.94;;;17.32;62.80
55424;BME280;41294;42.666;23.350;2022-12-11T08:22:11;93106.22;;;17.35;62.21
55424;BME280;41294;42.666;23.350;2022-12-11T08:24:38;93092.72;;;17.33;63.26
55424;BME280;41294;42.666;23.350;2022-12-11T08:27:03;93100.88;;;17.35;63.53
55424;BME280;41294;42.666;23.350;2022-12-11T08:29:29;93114.56;;;17.11;64.27
55424;BME280;41294;42.666;23.350;2022-12-11T08:31:55;93098.09;;;17.13;64.28
55424;BME280;41294;42.666;23.350;2022-12-11T08:34:21;93101.97;;;17.12;64.25
55424;BME280;41294;42.666;23.350;2022-12-11T08:36:46;93091.31;;;17.32;63.68
55424;BME280;41294;42.666;23.350;2022-12-11T08:39:12;93085.81;;;17.30;63.67
55424;BME280;41294;42.666;23.350;2022-12-11T08:41:37;93079.81;;;17.09;62.77
55424;BME280;41294;42.666;23.350;2022-12-11T08:44:02;93083.84;;;17.31;63.19
55424;BME280;41294;42.666;23.350;2022-12-11T08:46:30;93070.50;;;17.23;64.39
55424;BME280;41294;42.666;23.350;2022-12-11T08:48:56;93084.78;;;17.13;63.98
55424;BME280;41294;42.666;23.350;2022-12-11T08:51:24;93077.19;;;17.17;64.09
55424;BME280;41294;42.666;23.350;2022-12-11T08:53:50;93085.88;;;17.17;64.99
55424;BME280;41294;42.666;23.350;2022-12-11T08:56:19;93078.47;;;17.23;64.91
55424;BME280;41294;42.666;23.350;2022-12-11T08:58:45;93064.59;;;17.17;63.83
55424;BME280;41294;42.666;23.350;2022-12-11T09:01:17;93078.22;;;17.06;64.73
55424;BME280;41294;42.666;23.350;2022-12-11T09:03:42;93090.06;;;17.05;65.78
55424;BME280;41294;42.666;23.350;2022-12-11T09:06:10;93084.69;;;17.26;66.19
55424;BME280;41294;42.666;23.350;2022-12-11T09:08:37;93085.22;;;17.24;66.44
55424;BME280;41294;42.666;23.350;2022-12-11T09:11:16;93076.59;;;17.03;67.95
55424;BME280;41294;42.666;23.350;2022-12-11T09:13:42;93065.63;;;17.07;68.26
55424;BME280;41294;42.666;23.350;2022-12-11T09:16:13;93059.66;;;17.21;66.76
55424;BME280;41294;42.666;23.350;2022-12-11T09:18:39;93059.41;;;17.32;67.05
55424;BME280;41294;42.666;23.350;2022-12-11T09:21:10;93053.69;;;17.28;66.35
55424;BME280;41294;42.666;23.350;2022-12-11T09:23:38;93055.00;;;17.42;65.32
55424;BME280;41294;42.666;23.350;2022-12-11T09:26:08;93053.41;;;17.39;65.38
55424;BME280;41294;42.666;23.350;2022-12-11T09:28:35;93065.75;;;17.29;63.83
55424;BME280;41294;42.666;23.350;2022-12-11T09:31:00;93059.94;;;17.38;63.19
55424;BME280;41294;42.666;23.350;2022-12-11T09:33:26;93057.25;;;17.31;63.07
55424;BME280;41294;42.666;23.350;2022-12-11T09:35:59;93053.75;;;17.35;63.73
55424;BME280;41294;42.666;23.350;2022-12-11T09:38:25;93062.97;;;17.42;63.48
55424;BME280;41294;42.666;23.350;2022-12-11T09:40:50;93058.19;;;17.40;63.67
55424;BME280;41294;42.666;23.350;2022-12-11T09:43:40;93049.91;;;17.51;63.26
55424;BME280;41294;42.666;23.350;2022-12-11T09:46:14;93045.84;;;17.58;62.78
55424;BME280;41294;42.666;23.350;2022-12-11T09:48:48;93046.00;;;17.52;62.75
55424;BME280;41294;42.666;23.350;2022-12-11T09:51:30;93049.84;;;17.44;62.68
55424;BME280;41294;42.666;23.350;2022-12-11T09:54:00;93053.59;;;17.13;64.14
55424;BME280;41294;42.666;23.350;2022-12-11T09:56:32;93059.66;;;17.21;63.98
55424;BME280;41294;42.666;23.350;2022-12-11T09:59:12;93056.34;;;17.28;64.07
55424;BME280;41294;42.666;23.350;2022-12-11T10:02:17;93048.00;;;17.24;64.26
55424;BME280;41294;42.666;23.350;2022-12-11T10:05:16;93060.75;;;17.26;64.14
55424;BME280;41294;42.666;23.350;2022-12-11T10:07:54;93061.16;;;17.30;63.97
55424;BME280;41294;42.666;23.350;2022-12-11T10:10:48;93045.19;;;17.30;64.20
55424;BME280;41294;42.666;23.350;2022-12-11T10:16:34;93052.22;;;17.20;65.26
55424;BME280;41294;42.666;23.350;2022-12-11T10:19:01;93046.53;;;17.16;64.67
55424;BME280;41294;42.666;23.350;2022-12-11T10:21:30;93040.41;;;17.00;65.50
55424;BME280;41294;42.666;23.350;2022-12-11T10:24:00;93029.06;;;17.00;63.97
55424;BME280;41294;42.666;23.350;2022-12-11T10:26:28;93032.63;;;17.02;63.35
55424;BME280;41294;42.666;23.350;2022-12-11T10:28:58;93042.00;;;17.31;63.37
55424;BME280;41294;42.666;23.350;2022-12-11T10:31:46;93047.34;;;17.03;66.48
55424;BME280;41294;42.666;23.350;2022-12-11T10:36:48;93040.53;;;16.87;68.87
55424;BME280;41294;42.666;23.350;2022-12-11T10:39:19;93040.78;;;17.04;69.32
55424;BME280;41294;42.666;23.350;2022-12-11T10:41:52;93046.13;;;17.04;69.27
55424;BME280;41294;42.666;23.350;2022-12-11T10:47:10;93041.84;;;17.94;68.87
55424;BME280;41294;42.666;23.350;2022-12-11T10:49:37;93016.84;;;17.97;66.33
55424;BME280;41294;42.666;23.350;2022-12-11T10:52:11;93017.19;;;18.01;66.01
55424;BME280;41294;42.666;23.350;2022-12-11T10:54:46;93018.44;;;18.15;64.85
55424;BME280;41294;42.666;23.350;2022-12-11T10:57:26;93023.78;;;18.22;65.03
55424;BME280;41294;42.666;23.350;2022-12-11T10:59:53;93009.22;;;18.23;65.02
55424;BME280;41294;42.666;23.350;2022-12-11T11:04:51;93004.84;;;19.17;61.33
55424;BME280;41294;42.666;23.350;2022-12-11T11:07:25;93011.94;;;19.22;59.05
55424;BME280;41294;42.666;23.350;2022-12-11T11:10:14;93001.72;;;18.89;58.51
55424;BME280;41294;42.666;23.350;2022-12-11T11:12:54;93006.38;;;18.51;60.15
55424;BME280;41294;42.666;23.350;2022-12-11T11:15:27;93004.97;;;18.50;59.55
55424;BME280;41294;42.666;23.350;2022-12-11T11:17:55;92993.59;;;18.42;58.55
55424;BME280;41294;42.666;23.350;2022-12-11T11:20:29;92997.50;;;18.34;59.08
55424;BME280;41294;42.666;23.350;2022-12-11T11:22:57;92991.13;;;18.29;60.26
55424;BME280;41294;42.666;23.350;2022-12-11T11:25:26;93001.94;;;18.16;60.68
55424;BME280;41294;42.666;23.350;2022-12-11T11:27:55;93003.91;;;18.16;60.93
55424;BME280;41294;42.666;23.350;2022-12-11T11:30:28;92999.44;;;18.11;61.34
55424;BME280;41294;42.666;23.350;2022-12-11T11:32:56;93008.47;;;17.93;61.88
55424;BME280;41294;42.666;23.350;2022-12-11T11:35:26;93004.34;;;17.62;63.63
55424;BME280;41294;42.666;23.350;2022-12-11T11:38:17;92996.53;;;17.14;66.33
55424;BME280;41294;42.666;23.350;2022-12-11T11:40:47;92990.25;;;17.32;66.95
55424;BME280;41294;42.666;23.350;2022-12-11T11:51:26;92987.00;;;17.26;66.95
55424;BME280;41294;42.666;23.350;2022-12-11T11:53:56;92988.63;;;17.29;65.41
55424;BME280;41294;42.666;23.350;2022-12-11T11:56:30;92989.94;;;17.50;65.88
55424;BME280;41294;42.666;23.350;2022-12-11T11:59:19;92981.31;;;17.22;65.49
55424;BME280;41294;42.666;23.350;2022-12-11T12:01:49;92987.19;;;17.28;65.83
55424;BME280;41294;42.666;23.350;2022-12-11T12:04:15;92976.16;;;17.17;66.85
55424;BME280;41294;42.666;23.350;2022-12-11T12:07:04;92973.53;;;17.24;65.83
55424;BME280;41294;42.666;23.350;2022-12-11T12:17:52;92973.94;;;16.93;69.79
55424;BME280;41294;42.666;23.350;2022-12-11T12:26:08;92993.97;;;16.66;76.27
55424;BME280;41294;42.666;23.350;2022-12-11T12:28:53;92978.06;;;16.46;79.06
55424;BME280;41294;42.666;23.350;2022-12-11T12:45:04;93026.25;;;14.00;87.05
55424;BME280;41294;42.666;23.350;2022-12-11T12:47:34;93033.56;;;13.63;87.50
55424;BME280;41294;42.666;23.350;2022-12-11T12:50:02;93032.53;;;13.16;88.20
55424;BME280;41294;42.666;23.350;2022-12-11T12:52:36;93027.19;;;12.98;88.50
55424;BME280;41294;42.666;23.350;2022-12-11T12:55:23;93040.31;;;12.61;88.01
55424;BME280;41294;42.666;23.350;2022-12-11T13:00:41;93047.81;;;11.98;90.12
55424;BME280;41294;42.666;23.350;2022-12-11T13:03:22;93061.00;;;11.63;91.54
55424;BME280;41294;42.666;23.350;2022-12-11T13:08:26;93084.19;;;11.30;94.80
55424;BME280;41294;42.666;23.350;2022-12-11T13:11:01;93080.59;;;11.28;93.25
55424;BME280;41294;42.666;23.350;2022-12-11T13:13:32;93091.47;;;11.08;93.74
55424;BME280;41294;42.666;23.350;2022-12-11T13:16:25;93102.81;;;10.75;95.08
55424;BME280;41294;42.666;23.350;2022-12-11T13:18:51;93120.31;;;10.40;96.45
55424;BME280;41294;42.666;23.350;2022-12-11T13:21:33;93125.09;;;10.47;96.55
55424;BME280;41294;42.666;23.350;2022-12-11T13:26:47;93142.06;;;10.02;97.09
55424;BME280;41294;42.666;23.350;2022-12-11T13:29:34;93132.22;;;9.92;97.38
55424;BME280;41294;42.666;23.350;2022-12-11T13:32:23;93157.75;;;9.80;98.02
55424;BME280;41294;42.666;23.350;2022-12-11T13:34:58;93153.84;;;9.43;100.00
55424;BME280;41294;42.666;23.350;2022-12-11T13:40:00;93164.03;;;9.25;100.00
55424;BME280;41294;42.666;23.350;2022-12-11T13:42:45;93163.41;;;9.46;100.00
55424;BME280;41294;42.666;23.350;2022-12-11T13:45:22;93170.50;;;9.35;100.00
55424;BME280;41294;42.666;23.350;2022-12-11T13:47:49;93181.19;;;9.15;99.88
55424;BME280;41294;42.666;23.350;2022-12-11T13:50:23;93170.38;;;9.02;99.21
55424;BME280;41294;42.666;23.350;2022-12-11T13:52:56;93183.19;;;8.89;99.64
55424;BME280;41294;42.666;23.350;2022-12-11T13:55:26;93200.91;;;8.69;100.00
55424;BME280;41294;42.666;23.350;2022-12-11T13:57:52;93205.94;;;8.67;100.00
55424;BME280;41294;42.666;23.350;2022-12-11T14:00:23;93213.94;;;8.52;100.00
55424;BME280;41294;42.666;23.350;2022-12-11T14:02:49;93207.31;;;8.31;100.00
55424;BME280;41294;42.666;23.350;2022-12-11T14:05:16;93209.44;;;8.27;100.00
55424;BME280;41294;42.666;23.350;2022-12-11T14:07:46;93221.16;;;8.12;100.00
55424;BME280;41294;42.666;23.350;2022-12-11T14:10:14;93226.69;;;8.39;100.00
55424;BME280;41294;42.666;23.350;2022-12-11T14:13:38;93237.75;;;8.04;100.00
55424;BME280;41294;42.666;23.350;2022-12-11T14:15:55;93252.69;;;7.98;100.00
55424;BME280;41294;42.666;23.350;2022-12-11T14:18:23;93260.44;;;7.87;100.00
55424;BME280;41294;42.666;23.350;2022-12-11T14:20:59;93260.44;;;7.87;100.00